Time;durP1;ratioP1;P1;durP2;ratioP2;P2;SDS_P1;SDS_P2;PMS_P1;PMS_P2;Temp;Humidity;BMP_temperature;BMP_pressure;BME280_temperature;BME280_humidity;BME280_pressure;Samples;Min_cycle;Max_cycle;Signal;HPM_P1;HPM_P2
2022/10/22 00:02:04;;;;;;;14.98;11.05;;;;;;;3.53;73.47;100389.95;1778638;80;21098;-76
2022/10/22 00:04:31;;;;;;;13.62;11.18;;;;;;;3.53;73.40;100393.89;1718553;81;21183;-79
2022/10/22 00:06:58;;;;;;;13.10;11.12;;;;;;;3.51;73.37;100370.83;1747472;80;21033;-78
2022/10/22 00:09:25;;;;;;;13.15;9.80;;;;;;;3.48;73.45;100373.21;1731676;81;21007;-78
2022/10/22 00:11:52;;;;;;;12.33;9.38;;;;;;;3.54;73.37;100366.69;1710092;83;21103;-79
2022/10/22 00:14:18;;;;;;;14.10;11.12;;;;;;;3.62;73.18;100373.55;1795226;77;21037;-77
2022/10/22 00:16:45;;;;;;;14.75;10.48;;;;;;;3.59;73.23;100376.37;1794748;77;21513;-76
2022/10/22 00:19:13;;;;;;;12.33;10.45;;;;;;;3.57;73.17;100365.63;1803912;78;21061;-77
2022/10/22 00:21:40;;;;;;;13.98;10.98;;;;;;;3.54;73.14;100368.00;1799395;77;21075;-79
2022/10/22 00:24:06;;;;;;;11.80;10.28;;;;;;;3.50;73.23;100350.30;1806256;77;21003;-79
2022/10/22 00:26:33;;;;;;;12.30;9.88;;;;;;;3.48;73.16;100358.77;1810092;77;21057;-78
2022/10/22 00:28:59;;;;;;;11.90;9.35;;;;;;;3.50;73.23;100346.36;1790545;77;21825;-77
2022/10/22 00:31:26;;;;;;;13.03;10.63;;;;;;;3.62;73.12;100341.19;1805742;77;21092;-77
2022/10/22 00:33:52;;;;;;;11.83;9.78;;;;;;;3.61;72.87;100348.24;1803379;77;21084;-78
2022/10/22 00:36:19;;;;;;;14.68;10.35;;;;;;;3.60;72.87;100349.66;1809760;77;20984;-77
2022/10/22 00:38:46;;;;;;;12.30;9.98;;;;;;;3.58;72.88;100341.05;1805809;77;21003;-76
2022/10/22 00:41:13;;;;;;;11.97;10.38;;;;;;;3.56;72.98;100339.00;1810289;77;21955;-77
2022/10/22 00:44:03;;;;;;;16.62;12.05;;;;;;;3.53;72.90;100343.98;1810111;77;21079;-76
2022/10/22 00:46:31;;;;;;;13.72;9.83;;;;;;;3.51;72.83;100344.56;1794017;77;21076;-77
2022/10/22 00:49:00;;;;;;;13.15;10.13;;;;;;;3.54;73.00;100340.42;1828175;77;21482;-77
2022/10/22 00:51:31;;;;;;;14.95;10.30;;;;;;;3.67;72.71;100341.23;1798286;77;21013;-78
2022/10/22 00:54:02;;;;;;;14.63;10.15;;;;;;;3.68;72.64;100336.33;1776367;79;21253;-78
2022/10/22 00:56:28;;;;;;;14.07;10.72;;;;;;;3.67;72.66;100337.29;1808029;77;21053;-79
2022/10/22 00:58:57;;;;;;;14.87;11.20;;;;;;;3.62;72.57;100325.42;1811786;77;21079;-78
2022/10/22 01:01:27;;;;;;;13.22;11.15;;;;;;;3.61;72.64;100315.85;1808283;77;21191;-77
2022/10/22 01:03:54;;;;;;;13.62;11.00;;;;;;;3.59;72.56;100316.44;1811844;77;20974;-78
2022/10/22 01:06:31;;;;;;;14.33;10.15;;;;;;;3.55;72.68;100313.19;1803940;78;21087;-78
2022/10/22 01:09:22;;;;;;;11.85;9.48;;;;;;;3.52;72.67;100299.80;1794010;78;21022;-79
2022/10/22 01:12:24;;;;;;;15.18;11.38;;;;;;;3.66;72.44;100279.59;1797831;79;20943;-77
2022/10/22 01:15:26;;;;;;;14.45;10.75;;;;;;;3.67;72.36;100280.80;1795342;78;21033;-78
2022/10/22 01:18:04;;;;;;;14.05;11.20;;;;;;;3.63;72.49;100308.70;1800437;78;21040;-76
2022/10/22 01:21:06;;;;;;;13.53;11.12;;;;;;;3.57;72.48;100308.66;1799053;78;21225;-78
2022/10/22 01:24:21;;;;;;;14.65;11.88;;;;;;;3.48;72.71;100285.69;1792495;78;21543;-74
2022/10/22 01:28:13;;;;;;;14.20;9.93;;;;;;;3.49;72.76;100283.41;1816543;77;22230;-77
2022/10/22 01:30:40;;;;;;;13.50;9.68;;;;;;;3.48;72.85;100285.20;1813537;78;21055;-77
2022/10/22 01:33:09;;;;;;;13.43;11.45;;;;;;;3.57;72.71;100275.81;1806559;77;21103;-76
2022/10/22 01:35:38;;;;;;;16.67;11.08;;;;;;;3.58;72.80;100280.14;1834017;77;21012;-78
2022/10/22 01:38:10;;;;;;;15.28;10.93;;;;;;;3.57;72.74;100279.76;1798793;78;21008;-77
2022/10/22 01:40:37;;;;;;;16.32;11.45;;;;;;;3.53;72.95;100288.36;1787589;78;21111;-77
2022/10/22 01:43:07;;;;;;;14.95;12.15;;;;;;;3.51;72.99;100279.72;1800907;78;21053;-76
2022/10/22 01:45:47;;;;;;;15.53;12.05;;;;;;;3.47;73.01;100276.95;1778115;78;21131;-77
2022/10/22 01:48:36;;;;;;;15.40;13.13;;;;;;;3.45;73.17;100290.67;1786023;78;21033;-75
2022/10/22 01:51:31;;;;;;;12.45;10.18;;;;;;;3.42;73.26;100282.16;1841343;77;21040;-78
2022/10/22 01:54:19;;;;;;;16.02;11.60;;;;;;;3.57;73.10;100276.30;1833105;77;21045;-76
2022/10/22 01:56:57;;;;;;;14.87;11.97;;;;;;;3.57;73.21;100269.25;1818277;78;20996;-77
2022/10/22 02:00:00;;;;;;;18.17;13.15;;;;;;;3.53;73.14;100274.36;1798480;78;21121;-76
2022/10/22 02:02:47;;;;;;;16.57;13.08;;;;;;;3.51;73.26;100268.38;1822462;77;21052;-75
2022/10/22 02:05:31;;;;;;;18.35;12.10;;;;;;;3.46;73.40;100263.95;1773713;78;21956;-75
2022/10/22 02:08:14;;;;;;;17.50;12.33;;;;;;;3.43;73.38;100254.96;1776973;78;22363;-79
2022/10/22 02:10:43;;;;;;;14.10;10.48;;;;;;;3.40;73.54;100258.66;1810189;78;21874;-77
2022/10/22 02:13:23;;;;;;;18.02;11.60;;;;;;;3.57;73.26;100256.59;1788965;78;21103;-76
2022/10/22 02:15:51;;;;;;;15.00;11.08;;;;;;;3.56;73.32;100253.63;1822694;77;20990;-77
2022/10/22 02:18:21;;;;;;;15.40;12.13;;;;;;;3.56;73.32;100253.63;1801184;79;21049;-77
2022/10/22 02:20:49;;;;;;;16.30;11.55;;;;;;;3.53;73.46;100252.03;1797062;78;21021;-76
2022/10/22 02:23:15;;;;;;;16.75;12.25;;;;;;;3.51;73.40;100245.56;1801594;78;20994;-77
2022/10/22 02:25:44;;;;;;;17.98;12.28;;;;;;;3.51;73.32;100250.82;1801263;79;21692;-77
2022/10/22 02:28:25;;;;;;;14.80;10.75;;;;;;;3.50;73.32;100243.91;1827272;77;21517;-78
2022/10/22 02:30:56;;;;;;;14.60;10.03;;;;;;;3.48;73.31;100242.34;1825444;77;21040;-77
2022/10/22 02:33:32;;;;;;;16.60;10.78;;;;;;;3.60;73.23;100222.23;1794204;77;21006;-77
2022/10/22 02:35:58;;;;;;;16.42;10.98;;;;;;;3.66;73.07;100229.17;1825967;77;22029;-77
2022/10/22 02:38:26;;;;;;;16.67;11.18;;;;;;;3.63;73.02;100220.22;1810365;77;21134;-79
2022/10/22 02:40:52;;;;;;;17.40;12.78;;;;;;;3.61;73.04;100222.12;1831323;77;21041;-80
2022/10/22 02:43:19;;;;;;;15.48;12.25;;;;;;;3.58;73.12;100226.28;1814565;77;21561;-78
2022/10/22 02:45:46;;;;;;;19.07;12.33;;;;;;;3.55;73.08;100217.30;1827767;77;20989;-78
2022/10/22 02:48:13;;;;;;;16.55;11.45;;;;;;;3.51;73.04;100214.05;1842344;77;21052;-77
2022/10/22 02:50:41;;;;;;;14.40;11.03;;;;;;;3.49;73.20;100215.11;1803241;77;21474;-78
2022/10/22 02:53:08;;;;;;;18.57;11.18;;;;;;;3.56;73.20;100216.36;1809046;77;21511;-77
2022/10/22 02:55:35;;;;;;;19.17;12.18;;;;;;;3.66;73.08;100209.95;1805988;77;21298;-77
2022/10/22 02:58:02;;;;;;;14.38;11.75;;;;;;;3.62;73.19;100207.19;1832000;77;21102;-76
2022/10/22 03:00:29;;;;;;;15.15;11.53;;;;;;;3.57;73.25;100202.73;1786524;78;22230;-77
2022/10/22 03:02:57;;;;;;;15.28;12.53;;;;;;;3.53;73.41;100200.80;1823948;77;21194;-77
2022/10/22 03:05:23;;;;;;;15.78;11.97;;;;;;;3.50;73.69;100195.31;1813802;77;21010;-77
2022/10/22 03:07:49;;;;;;;19.70;12.18;;;;;;;3.46;73.72;100196.97;1808600;77;21049;-77
2022/10/22 03:10:16;;;;;;;18.55;11.35;;;;;;;3.44;73.86;100197.52;1810705;77;21158;-77
2022/10/22 03:12:42;;;;;;;16.82;11.60;;;;;;;3.51;73.79;100194.83;1812106;77;21088;-78
2022/10/22 03:15:09;;;;;;;18.15;11.85;;;;;;;3.63;73.61;100193.09;1821878;77;21086;-79
2022/10/22 03:17:37;;;;;;;18.42;12.33;;;;;;;3.62;73.70;100192.25;1786238;78;21023;-77
2022/10/22 03:20:05;;;;;;;18.20;11.83;;;;;;;3.60;73.82;100184.13;1811367;77;21044;-76
2022/10/22 03:22:32;;;;;;;18.15;11.85;;;;;;;3.58;73.93;100183.41;1835159;77;21042;-80
2022/10/22 03:25:01;;;;;;;15.60;12.63;;;;;;;3.56;73.86;100179.58;1809050;77;21028;-79
2022/10/22 03:27:28;;;;;;;14.63;11.45;;;;;;;3.56;74.03;100176.12;1791296;77;21520;-77
2022/10/22 03:29:55;;;;;;;18.87;10.70;;;;;;;3.54;74.19;100165.72;1771002;79;20998;-77
2022/10/22 03:32:21;;;;;;;17.60;10.82;;;;;;;3.60;74.16;100167.89;1787531;78;21137;-81
2022/10/22 03:34:48;;;;;;;16.07;10.65;;;;;;;3.76;73.98;100170.70;1759450;79;21094;-77
2022/10/22 03:37:15;;;;;;;18.45;12.03;;;;;;;3.74;74.10;100174.75;1786396;78;21026;-78
2022/10/22 03:39:42;;;;;;;18.75;12.03;;;;;;;3.73;74.24;100175.72;1746502;78;21131;-78
2022/10/22 03:42:09;;;;;;;18.37;12.45;;;;;;;3.70;74.34;100170.19;1784076;78;21024;-76
2022/10/22 03:44:36;;;;;;;15.38;11.10;;;;;;;3.67;74.47;100169.12;1803096;78;21020;-78
2022/10/22 03:47:03;;;;;;;14.50;11.00;;;;;;;3.65;74.67;100176.28;1785225;80;21100;-77
2022/10/22 03:49:29;;;;;;;15.78;10.50;;;;;;;3.62;74.80;100164.67;1794130;78;21037;-80
2022/10/22 03:51:56;;;;;;;16.77;10.78;;;;;;;3.77;74.80;100160.53;1774265;78;21126;-78
2022/10/22 03:54:23;;;;;;;15.50;10.93;;;;;;;3.82;74.70;100171.55;1793713;78;21530;-78
2022/10/22 03:56:50;;;;;;;17.20;11.88;;;;;;;3.77;74.69;100165.78;1804183;78;20997;-76
2022/10/22 03:59:17;;;;;;;15.40;11.85;;;;;;;3.74;74.56;100162.44;1796839;78;21032;-77
2022/10/22 04:01:44;;;;;;;15.45;11.50;;;;;;;3.73;74.79;100158.63;1802772;78;21087;-78
2022/10/22 04:04:11;;;;;;;14.33;10.38;;;;;;;3.71;74.71;100155.28;1786868;78;21170;-76
2022/10/22 04:06:38;;;;;;;15.93;10.35;;;;;;;3.70;74.52;100153.59;1807567;78;20980;-77
2022/10/22 04:09:05;;;;;;;15.38;10.23;;;;;;;3.80;74.50;100143.23;1778046;78;21840;-75
2022/10/22 04:11:31;;;;;;;14.58;10.80;;;;;;;3.87;74.31;100144.45;1786207;78;21539;-76
2022/10/22 04:13:58;;;;;;;16.45;11.05;;;;;;;3.86;74.25;100140.14;1799752;78;21228;-79
2022/10/22 04:16:29;;;;;;;15.32;11.60;;;;;;;3.83;74.29;100144.33;1792705;80;21949;-77
2022/10/22 04:18:54;;;;;;;19.25;12.63;;;;;;;3.81;74.29;100139.18;1785470;78;21012;-78
2022/10/22 04:21:20;;;;;;;14.75;10.10;;;;;;;3.81;74.29;100138.35;1782796;78;21487;-78
2022/10/22 04:23:48;;;;;;;16.45;10.23;;;;;;;3.81;74.15;100142.30;1777144;79;21312;-78
2022/10/22 04:26:15;;;;;;;18.40;11.15;;;;;;;3.95;73.73;100151.28;1783915;79;21102;-79
2022/10/22 04:28:42;;;;;;;12.40;10.00;;;;;;;4.00;73.23;100152.23;1808884;78;21084;-76
2022/10/22 04:31:11;;;;;;;16.35;11.28;;;;;;;4.00;73.24;100144.34;1804576;79;21040;-78
2022/10/22 04:33:37;;;;;;;15.83;11.48;;;;;;;3.97;73.05;100140.17;1790102;78;21092;-75
2022/10/22 04:36:17;;;;;;;14.50;10.27;;;;;;;3.94;72.95;100157.02;1813156;78;21064;-78
2022/10/22 04:38:46;;;;;;;15.03;10.50;;;;;;;3.92;72.72;100145.79;1797355;77;21111;-77
2022/10/22 04:41:18;;;;;;;17.80;10.08;;;;;;;3.89;72.80;100144.69;1812207;77;21654;-79
2022/10/22 04:43:46;;;;;;;13.68;9.58;;;;;;;3.93;72.76;100143.98;1837738;77;27579;-80
2022/10/22 04:46:13;;;;;;;12.53;10.20;;;;;;;4.07;72.41;100148.20;1799054;78;22104;-77
2022/10/22 04:48:42;;;;;;;15.03;9.85;;;;;;;4.07;72.33;100146.88;1790556;77;21065;-77
2022/10/22 04:51:12;;;;;;;12.98;9.68;;;;;;;4.05;72.37;100154.05;1802266;78;21026;-76
2022/10/22 04:53:39;;;;;;;15.95;10.85;;;;;;;4.01;72.16;100149.98;1840282;77;21094;-75
2022/10/22 04:56:20;;;;;;;16.12;10.70;;;;;;;3.97;72.21;100153.31;1812682;77;21098;-76
2022/10/22 04:58:48;;;;;;;16.75;11.80;;;;;;;3.96;72.13;100140.28;1811056;77;21018;-74
2022/10/22 05:01:22;;;;;;;19.57;11.97;;;;;;;3.94;72.27;100128.59;1811973;77;21541;-76
2022/10/22 05:03:50;;;;;;;15.35;10.00;;;;;;;3.93;72.18;100122.96;1807070;77;21108;-76
2022/10/22 05:06:19;;;;;;;17.98;11.15;;;;;;;4.00;72.11;100118.92;1822846;77;21022;-77
2022/10/22 05:08:47;;;;;;;13.83;9.85;;;;;;;4.13;71.97;100099.08;1809761;77;21548;-76
2022/10/22 05:11:16;;;;;;;15.03;11.12;;;;;;;4.14;71.73;100105.55;1801123;77;21021;-77
2022/10/22 05:13:44;;;;;;;15.05;9.88;;;;;;;4.14;71.62;100102.09;1836064;77;21510;-77
2022/10/22 05:16:10;;;;;;;14.98;10.95;;;;;;;4.15;71.59;100101.11;1810222;77;21517;-77
2022/10/22 05:18:40;;;;;;;12.58;9.75;;;;;;;4.14;71.54;100105.55;1822367;77;21530;-79
2022/10/22 05:21:10;;;;;;;15.25;10.63;;;;;;;4.15;71.57;100106.38;1821238;77;21048;-77
2022/10/22 05:23:36;;;;;;;18.62;10.80;;;;;;;4.13;71.60;100115.72;1808041;77;21046;-77
2022/10/22 05:26:04;;;;;;;16.23;9.88;;;;;;;4.11;71.79;100125.52;1821234;77;20992;-76
2022/10/22 05:28:32;;;;;;;16.55;9.65;;;;;;;4.18;71.62;100128.98;1831259;77;20998;-76
2022/10/22 05:30:59;;;;;;;14.75;10.25;;;;;;;4.25;71.34;100124.45;1813615;77;21211;-78
2022/10/22 05:33:27;;;;;;;19.70;11.93;;;;;;;4.25;71.32;100123.59;1811367;77;20999;-80
2022/10/22 05:35:53;;;;;;;18.60;9.60;;;;;;;4.25;71.10;100122.28;1810373;77;21038;-78
2022/10/22 05:38:20;;;;;;;13.25;9.80;;;;;;;4.24;71.10;100131.14;1809408;77;21592;-78
2022/10/22 05:40:47;;;;;;;15.28;10.32;;;;;;;4.23;71.05;100129.00;1825079;77;21091;-76
2022/10/22 05:43:15;;;;;;;16.15;10.85;;;;;;;4.20;71.15;100123.96;1817037;77;21063;-78
2022/10/22 05:45:42;;;;;;;15.15;9.53;;;;;;;4.20;71.19;100127.91;1817995;77;21064;-79
2022/10/22 05:48:09;;;;;;;15.75;9.28;;;;;;;4.20;71.23;100120.50;1810634;78;21022;-76
2022/10/22 05:50:36;;;;;;;11.97;8.68;;;;;;;4.29;71.15;100133.78;1808776;78;21091;-76
2022/10/22 05:53:05;;;;;;;11.70;8.85;;;;;;;4.46;70.83;100139.06;1807308;78;21076;-79
2022/10/22 05:55:41;;;;;;;14.80;9.53;;;;;;;4.48;70.64;100125.76;1814618;78;21313;-78
2022/10/22 05:58:05;;;;;;;19.45;10.68;;;;;;;4.51;70.51;100130.80;1794838;78;21491;-77
2022/10/22 06:00:33;;;;;;;17.32;10.53;;;;;;;4.60;70.32;100131.40;1778651;79;21573;-82
2022/10/22 06:03:00;;;;;;;14.58;9.98;;;;;;;4.62;70.05;100112.38;1766303;79;20998;-82
2022/10/22 06:05:26;;;;;;;17.87;9.90;;;;;;;4.72;69.67;100121.21;1758411;80;21085;-76
2022/10/22 06:07:53;;;;;;;21.17;10.18;;;;;;;4.74;69.75;100122.41;1797783;78;21976;-76
2022/10/22 06:10:19;;;;;;;12.70;10.08;;;;;;;4.76;69.54;100116.55;1803642;78;21071;-77
2022/10/22 06:12:48;;;;;;;17.25;10.10;;;;;;;4.81;69.55;100113.08;1795986;80;21049;-75
2022/10/22 06:15:16;;;;;;;17.32;9.83;;;;;;;4.87;69.46;100122.29;1818814;77;21077;-78
2022/10/22 06:17:46;;;;;;;16.35;8.90;;;;;;;4.92;69.39;100117.47;1814901;78;21006;-78
2022/10/22 06:20:14;;;;;;;19.05;9.03;;;;;;;5.03;69.20;100113.51;1817036;78;22113;-77
2022/10/22 06:22:42;;;;;;;14.53;9.95;;;;;;;5.22;68.94;100110.72;1811853;77;20990;-79
2022/10/22 06:25:09;;;;;;;25.55;10.48;;;;;;;5.28;68.50;100112.36;1808009;77;21081;-79
2022/10/22 06:27:35;;;;;;;15.72;9.70;;;;;;;5.28;68.32;100109.72;1812354;77;21085;-77
2022/10/22 06:30:02;;;;;;;17.35;9.68;;;;;;;5.28;68.33;100118.12;1788953;78;21017;-79
2022/10/22 06:32:30;;;;;;;17.00;10.32;;;;;;;5.28;67.75;100111.53;1789407;78;21135;-77
2022/10/22 06:34:56;;;;;;;16.05;9.80;;;;;;;5.27;68.22;100115.11;1805001;78;21080;-78
2022/10/22 06:37:23;;;;;;;13.32;9.90;;;;;;;5.27;68.26;100116.42;1799291;79;21061;-79
2022/10/22 06:39:50;;;;;;;15.93;9.00;;;;;;;5.27;68.06;100119.92;1791041;78;21069;-79
2022/10/22 06:42:16;;;;;;;17.55;9.33;;;;;;;5.28;68.16;100109.72;1819951;78;21088;-77
2022/10/22 06:44:44;;;;;;;18.52;10.30;;;;;;;5.30;68.09;100114.87;1805014;78;21318;-76
2022/10/22 06:47:10;;;;;;;15.25;9.60;;;;;;;5.30;68.21;100107.80;1775132;78;21475;-77
2022/10/22 06:49:38;;;;;;;25.43;10.08;;;;;;;5.30;68.30;100109.12;1787376;79;21061;-76
2022/10/22 06:52:05;;;;;;;16.00;9.35;;;;;;;5.33;68.06;100114.61;1799637;78;21522;-75
2022/10/22 06:54:31;;;;;;;18.80;10.50;;;;;;;5.37;68.13;100107.29;1800822;78;21544;-76
2022/10/22 06:56:57;;;;;;;13.93;9.58;;;;;;;5.40;68.18;100121.05;1779530;78;21772;-77
2022/10/22 06:59:24;;;;;;;12.73;8.63;;;;;;;5.46;68.08;100115.77;1816266;78;20997;-76
2022/10/22 07:01:51;;;;;;;13.28;9.05;;;;;;;5.51;68.19;100121.51;1775008;78;21280;-75
2022/10/22 07:04:17;;;;;;;17.35;8.55;;;;;;;5.58;68.33;100119.19;1797093;78;21072;-79
2022/10/22 07:06:45;;;;;;;11.03;7.70;;;;;;;5.72;67.94;100118.90;1783198;78;21037;-77
2022/10/22 07:09:12;;;;;;;13.48;8.53;;;;;;;5.90;67.38;100105.97;1802319;78;21647;-76
2022/10/22 07:11:43;;;;;;;16.40;9.88;;;;;;;5.96;67.35;100092.78;1785423;78;21045;-76
2022/10/22 07:14:10;;;;;;;15.90;9.53;;;;;;;6.01;67.30;100104.61;1801264;79;21014;-77
2022/10/22 07:16:37;;;;;;;13.35;9.05;;;;;;;6.05;67.31;100091.52;1800551;78;21037;-77
2022/10/22 07:19:04;;;;;;;15.13;9.15;;;;;;;6.09;67.04;100107.44;1795803;78;21083;-78
2022/10/22 07:21:32;;;;;;;23.42;9.63;;;;;;;6.12;67.10;100096.27;1768079;80;21058;-79
2022/10/22 07:23:59;;;;;;;17.95;10.25;;;;;;;6.14;67.09;100091.20;1799058;79;21060;-77
2022/10/22 07:26:29;;;;;;;16.95;8.65;;;;;;;6.18;67.28;100104.51;1811097;78;21113;-78
2022/10/22 07:28:56;;;;;;;13.53;9.20;;;;;;;6.16;67.31;100085.34;1810878;76;21072;-79
2022/10/22 07:31:23;;;;;;;16.87;9.00;;;;;;;6.29;67.25;100085.10;1804184;78;21032;-79
2022/10/22 07:33:50;;;;;;;14.33;10.00;;;;;;;6.34;67.20;100073.67;1802613;78;21478;-78
2022/10/22 07:36:16;;;;;;;13.78;8.40;;;;;;;6.42;67.32;100069.88;1802328;78;22112;-78
2022/10/22 07:38:46;;;;;;;13.65;9.55;;;;;;;6.50;66.90;100070.53;1804138;78;20958;-78
2022/10/22 07:41:14;;;;;;;13.18;9.65;;;;;;;6.53;67.06;100068.10;1814938;78;21037;-78
2022/10/22 07:43:41;;;;;;;13.48;9.10;;;;;;;6.56;66.97;100063.89;1802965;79;21080;-78
2022/10/22 07:46:07;;;;;;;15.58;8.98;;;;;;;6.58;66.83;100072.51;1821732;78;21150;-80
2022/10/22 07:48:37;;;;;;;14.38;9.95;;;;;;;6.62;66.87;100058.06;1803317;79;21044;-80
2022/10/22 07:51:05;;;;;;;14.58;9.38;;;;;;;6.65;66.90;100056.48;1801302;78;21007;-78
2022/10/22 07:53:31;;;;;;;14.50;9.38;;;;;;;6.71;66.94;100054.62;1825724;78;21053;-81
2022/10/22 07:55:58;;;;;;;23.05;9.78;;;;;;;6.75;66.98;100066.58;1799403;78;20997;-77
2022/10/22 07:58:25;;;;;;;18.30;8.93;;;;;;;6.78;67.03;100068.95;1805584;78;21544;-78
2022/10/22 08:00:57;;;;;;;12.03;9.13;;;;;;;6.80;66.88;100072.30;1802150;77;21044;-79
2022/10/22 08:03:25;;;;;;;;;;;;;;;6.83;66.88;100075.14;1811681;78;21494;-79
2022/10/22 08:05:51;;;;;;;12.98;8.78;;;;;;;6.82;66.86;100073.48;1791953;78;20149;-79
2022/10/22 08:08:18;;;;;;;10.80;8.05;;;;;;;6.82;67.05;100073.00;1808013;78;21013;-79
2022/10/22 08:10:45;;;;;;;11.38;8.68;;;;;;;6.84;67.22;100073.69;1794813;78;21223;-81
2022/10/22 08:13:13;;;;;;;12.88;8.35;;;;;;;6.88;67.18;100079.05;1797898;78;21593;-79
2022/10/22 08:15:42;;;;;;;14.20;8.50;;;;;;;6.91;67.06;100079.75;1810424;77;21475;-80
2022/10/22 08:18:08;;;;;;;10.28;7.90;;;;;;;6.90;66.97;100063.08;1805026;79;21023;-78
2022/10/22 08:20:35;;;;;;;14.65;8.05;;;;;;;6.91;67.15;100071.82;1804267;79;21057;-80
2022/10/22 08:23:01;;;;;;;12.05;7.70;;;;;;;6.90;67.43;100067.03;1807178;78;21084;-80
2022/10/22 08:25:28;;;;;;;10.95;8.45;;;;;;;6.90;67.45;100071.00;1813663;78;20998;-81
2022/10/22 08:27:56;;;;;;;16.65;8.85;;;;;;;6.95;67.57;100078.50;1821902;78;21532;-78
2022/10/22 08:30:22;;;;;;;14.03;7.62;;;;;;;6.98;67.70;100078.23;1778943;78;21061;-79
2022/10/22 08:32:49;;;;;;;12.10;8.08;;;;;;;7.02;67.60;100079.62;1802156;77;21627;-77
2022/10/22 08:35:15;;;;;;;13.18;7.47;;;;;;;7.09;67.54;100083.41;1804919;78;21177;-81
2022/10/22 08:37:42;;;;;;;10.98;8.33;;;;;;;7.12;67.54;100100.28;1794352;79;21068;-81
2022/10/22 08:40:13;;;;;;;11.55;8.23;;;;;;;7.16;67.42;100081.86;1807953;78;21080;-82
2022/10/22 08:43:28;;;;;;;14.23;7.92;;;;;;;7.22;67.40;100078.69;1805240;79;21513;-83
2022/10/22 08:46:26;;;;;;;11.80;8.63;;;;;;;7.26;67.47;100072.16;1816761;78;21051;-83
2022/10/22 08:48:59;;;;;;;15.85;8.43;;;;;;;7.32;67.25;100064.16;1803985;78;21214;-80
2022/10/22 08:51:29;;;;;;;12.13;7.95;;;;;;;7.37;67.24;100068.52;1814125;78;21013;-83
2022/10/22 08:54:25;;;;;;;13.25;7.60;;;;;;;7.40;67.45;100076.18;1785683;79;20904;-82
2022/10/22 08:57:10;;;;;;;15.75;7.83;;;;;;;7.41;67.29;100075.19;1788103;78;20966;-83
2022/10/22 09:00:03;;;;;;;14.30;7.50;;;;;;;7.43;67.37;100074.56;1785072;79;21002;-83
2022/10/22 09:03:11;;;;;;;10.30;7.30;;;;;;;7.45;67.33;100065.17;1773890;79;21533;-82
2022/10/22 09:05:55;;;;;;;11.15;7.37;;;;;;;7.47;67.37;100067.19;1806698;78;21080;-83
2022/10/22 09:08:22;;;;;;;12.80;8.38;;;;;;;7.45;67.28;100062.03;1800374;78;21477;-79
2022/10/22 09:10:56;;;;;;;13.65;8.43;;;;;;;7.46;67.58;100062.89;1799311;78;21802;-78
2022/10/22 09:13:24;;;;;;;12.15;8.08;;;;;;;7.45;67.57;100052.78;1803086;78;20982;-80
2022/10/22 09:15:54;;;;;;;10.98;7.92;;;;;;;7.47;67.62;100050.01;1804240;79;21817;-81
2022/10/22 09:19:00;;;;;;;16.30;8.05;;;;;;;7.48;67.66;100047.73;1806125;78;20986;-77
2022/10/22 09:21:58;;;;;;;12.43;7.65;;;;;;;7.48;67.67;100057.80;1785848;78;21037;-80
2022/10/22 09:24:45;;;;;;;17.05;8.70;;;;;;;7.48;67.84;100043.27;1784884;79;21098;-81
2022/10/22 09:27:20;;;;;;;12.98;7.65;;;;;;;7.48;67.88;100030.55;1808652;78;21041;-83
2022/10/22 09:29:47;;;;;;;11.85;6.47;;;;;;;7.48;68.09;100021.29;1811439;78;21145;-84
2022/10/22 09:32:15;;;;;;;13.10;7.25;;;;;;;7.65;68.05;100028.50;1798921;79;21510;-82
2022/10/22 09:34:45;;;;;;;16.37;8.28;;;;;;;7.76;67.68;100016.08;1770091;79;21055;-83
2022/10/22 09:37:11;;;;;;;10.98;8.05;;;;;;;7.78;67.70;100036.60;1797993;78;21020;-83
2022/10/22 09:39:42;;;;;;;15.58;8.65;;;;;;;7.79;67.59;100015.31;1786731;78;21033;-83
2022/10/22 09:42:13;;;;;;;10.78;8.00;;;;;;;7.83;67.72;100010.57;1811538;78;21162;-82
2022/10/22 09:44:39;;;;;;;10.68;8.28;;;;;;;7.84;67.62;100000.31;1778674;78;21075;-83
2022/10/22 09:47:09;;;;;;;13.93;8.35;;;;;;;7.83;67.73;99993.37;1790940;76;21020;-81
2022/10/22 09:49:35;;;;;;;12.00;8.35;;;;;;;7.83;67.83;99992.05;1735694;81;21608;-81
2022/10/22 09:52:02;;;;;;;13.40;8.73;;;;;;;7.83;67.82;99994.20;1761691;81;21048;-80
2022/10/22 09:54:39;;;;;;;10.55;8.68;;;;;;;7.85;67.92;100000.18;1732008;81;21141;-81
2022/10/22 09:57:20;;;;;;;11.85;8.65;;;;;;;7.85;67.97;99992.74;1738913;81;21014;-79
2022/10/22 09:59:48;;;;;;;17.07;8.80;;;;;;;7.86;68.31;99999.22;1737396;80;21006;-81
2022/10/22 10:02:23;;;;;;;17.45;10.15;;;;;;;7.87;68.29;99997.39;1757536;80;21537;-83
2022/10/22 10:04:52;;;;;;;15.10;9.60;;;;;;;7.86;68.37;100002.33;1756771;81;21064;-83
2022/10/22 10:07:25;;;;;;;13.85;9.55;;;;;;;7.85;68.42;99988.27;1751447;80;21124;-81
2022/10/22 10:09:53;;;;;;;17.32;10.90;;;;;;;7.87;68.59;99977.06;1757238;80;21555;-81
2022/10/22 10:12:51;;;;;;;15.05;10.85;;;;;;;8.02;68.62;99981.40;1757399;81;21060;-80
2022/10/22 10:15:41;;;;;;;13.93;9.03;;;;;;;8.18;68.39;99979.44;1739074;80;21046;-81
2022/10/22 10:18:42;;;;;;;16.12;11.05;;;;;;;8.27;68.37;99969.80;1720588;82;21559;-81
2022/10/22 10:21:24;;;;;;;13.68;10.63;;;;;;;8.34;68.29;99970.85;1711753;83;21552;-80
2022/10/22 10:24:23;;;;;;;14.65;9.90;;;;;;;8.42;68.03;99969.67;1685052;85;21085;-80
2022/10/22 10:26:59;;;;;;;13.90;10.68;;;;;;;8.53;67.92;99973.09;1677486;83;21062;-79
2022/10/22 10:29:52;;;;;;;18.98;11.05;;;;;;;8.63;67.73;99976.49;1709391;82;21064;-76
2022/10/22 10:32:40;;;;;;;17.15;10.68;;;;;;;8.71;67.74;99985.02;1706734;81;21143;-79
2022/10/22 10:35:26;;;;;;;15.55;10.35;;;;;;;8.78;67.49;99988.23;1715493;83;21228;-77
2022/10/22 10:38:24;;;;;;;16.73;10.93;;;;;;;8.82;67.30;99967.08;1710994;83;21058;-78
2022/10/22 10:40:55;;;;;;;15.45;10.65;;;;;;;8.86;67.27;99953.05;1702819;83;21533;-78
2022/10/22 10:43:40;;;;;;;14.70;9.95;;;;;;;8.89;67.32;99959.38;1721540;81;21088;-79
2022/10/22 10:46:28;;;;;;;23.20;11.78;;;;;;;8.87;67.33;99976.42;1714630;82;21069;-80
2022/10/22 10:48:59;;;;;;;17.25;11.65;;;;;;;8.85;67.52;99984.52;1708457;81;21296;-77
2022/10/22 10:51:35;;;;;;;14.83;10.23;;;;;;;8.82;67.76;99980.33;1718524;83;21050;-78
2022/10/22 10:54:28;;;;;;;16.87;11.22;;;;;;;8.82;67.82;99972.88;1686171;85;21013;-78
2022/10/22 10:57:12;;;;;;;16.82;10.63;;;;;;;8.82;67.76;99971.05;1695947;82;21045;-80
2022/10/22 11:00:10;;;;;;;16.55;11.03;;;;;;;8.85;67.83;99981.86;1701974;84;21613;-80
2022/10/22 11:03:02;;;;;;;15.53;10.90;;;;;;;8.84;68.02;99970.41;1681775;84;21104;-79
2022/10/22 11:05:35;;;;;;;19.97;11.67;;;;;;;8.85;68.11;99958.02;1695484;84;21113;-79
2022/10/22 11:08:18;;;;;;;16.40;10.70;;;;;;;8.85;68.38;99961.49;1701228;83;21010;-80
2022/10/22 11:11:09;;;;;;;22.45;11.40;;;;;;;8.84;68.50;99962.96;1696062;84;21086;-79
2022/10/22 11:13:46;;;;;;;14.95;11.12;;;;;;;8.96;68.53;99952.49;1660976;84;21045;-76
2022/10/22 11:16:49;;;;;;;15.03;11.10;;;;;;;9.10;68.21;99944.48;1701884;83;21288;-77
2022/10/22 11:19:24;;;;;;;21.55;13.03;;;;;;;9.12;68.20;99942.52;1699115;84;21010;-78
2022/10/22 11:22:14;;;;;;;15.25;10.85;;;;;;;9.16;68.33;99942.54;1699473;84;21050;-78
2022/10/22 11:24:58;;;;;;;14.60;10.45;;;;;;;9.21;68.26;99937.62;1703898;84;20948;-78
2022/10/22 11:27:39;;;;;;;16.12;10.03;;;;;;;9.29;68.20;99942.15;1687425;82;21137;-80
2022/10/22 11:30:22;;;;;;;13.55;10.15;;;;;;;9.36;68.12;99946.33;1682789;84;21210;-78
2022/10/22 11:32:55;;;;;;;15.00;10.55;;;;;;;9.42;68.14;99938.56;1700034;84;21048;-78
2022/10/22 11:35:26;;;;;;;16.25;10.95;;;;;;;9.54;68.10;99927.70;1701876;83;21597;-78
2022/10/22 11:37:54;;;;;;;17.62;10.32;;;;;;;9.64;67.79;99910.70;1701322;84;21065;-80
2022/10/22 11:40:37;;;;;;;17.75;11.10;;;;;;;9.75;67.66;99908.25;1702949;84;21016;-80
2022/10/22 11:43:11;;;;;;;16.40;10.45;;;;;;;9.81;67.47;99901.00;1703389;83;20951;-80
2022/10/22 11:45:39;;;;;;;17.52;11.08;;;;;;;9.85;67.45;99904.17;1683287;84;21554;-80
2022/10/22 11:48:17;;;;;;;20.57;12.47;;;;;;;9.89;67.50;99904.66;1689170;82;21090;-80